Time;durP1;ratioP1;P1;durP2;ratioP2;P2;SDS_P1;SDS_P2;PMS_P1;PMS_P2;Temp;Humidity;BMP_temperature;BMP_pressure;BME280_temperature;BME280_humidity;BME280_pressure;Samples;Min_cycle;Max_cycle;Signal;HPM_P1;HPM_P2
2023/04/04 00:00:51;;;;;;;7.60;3.30;;;;;;;0.64;89.41;102952.75;4954071;28;20023;-78
2023/04/04 00:03:17;;;;;;;11.18;3.90;;;;;;;0.53;89.60;102932.47;4955035;28;20494;-79
2023/04/04 00:05:44;;;;;;;7.47;3.60;;;;;;;0.54;91.22;102941.94;4954759;28;20023;-79
2023/04/04 00:08:12;;;;;;;6.95;3.45;;;;;;;0.51;92.93;102936.63;4954270;28;20110;-78
2023/04/04 00:10:37;;;;;;;6.65;3.40;;;;;;;0.55;92.89;102949.69;4953846;28;20035;-79
2023/04/04 00:13:04;;;;;;;6.47;3.35;;;;;;;0.51;91.52;102945.22;4954743;28;20027;-79
2023/04/04 00:15:29;;;;;;;7.75;3.10;;;;;;;0.52;91.65;102953.78;4953997;28;20031;-79
2023/04/04 00:17:55;;;;;;;7.88;3.35;;;;;;;0.45;90.78;102950.03;4953823;28;20027;-79
2023/04/04 00:20:21;;;;;;;5.53;3.15;;;;;;;0.47;91.31;102953.56;4954737;28;20042;-79
2023/04/04 00:22:46;;;;;;;10.88;3.50;;;;;;;0.35;91.57;102940.97;4953599;28;20355;-79
2023/04/04 00:25:14;;;;;;;6.18;3.05;;;;;;;0.39;90.73;102959.97;4953869;28;20027;-79
2023/04/04 00:27:40;;;;;;;6.50;3.60;;;;;;;0.38;91.18;102960.78;4953163;28;20023;-78
2023/04/04 00:30:06;;;;;;;7.53;3.38;;;;;;;0.34;89.73;102958.88;4952876;28;20046;-78
2023/04/04 00:32:31;;;;;;;7.38;2.95;;;;;;;0.34;90.03;102964.00;4954344;28;20031;-79
2023/04/04 00:34:56;;;;;;;5.95;3.40;;;;;;;0.33;91.32;102962.25;4954547;28;20390;-79
2023/04/04 00:37:22;;;;;;;6.38;3.58;;;;;;;0.30;92.49;102959.53;4953696;28;20032;-78
2023/04/04 00:39:48;;;;;;;6.95;3.40;;;;;;;0.25;91.41;102955.81;4953001;28;20156;-79
2023/04/04 00:42:14;;;;;;;8.23;3.45;;;;;;;0.21;91.38;102952.22;4952376;28;20399;-79
2023/04/04 00:44:39;;;;;;;9.43;3.92;;;;;;;0.20;91.54;102956.47;4953290;28;20031;-78
2023/04/04 00:47:05;;;;;;;8.35;3.85;;;;;;;0.16;90.84;102961.34;4954248;28;20032;-79
2023/04/04 00:49:32;;;;;;;5.53;3.60;;;;;;;0.07;91.01;102960.88;4953310;28;20061;-78
2023/04/04 00:51:58;;;;;;;8.38;3.80;;;;;;;0.15;93.25;102967.28;4954321;28;20080;-79
2023/04/04 00:54:24;;;;;;;6.35;3.50;;;;;;;0.13;91.97;102966.31;4954401;28;20032;-78
2023/04/04 00:56:54;;;;;;;8.15;3.70;;;;;;;0.10;91.49;102958.44;4936147;29;20082;-79
2023/04/04 00:59:21;;;;;;;7.80;4.10;;;;;;;0.01;91.40;102953.72;4958444;28;20078;-79
2023/04/04 01:01:47;;;;;;;9.23;4.28;;;;;;;0.06;92.18;102966.78;4958206;28;20048;-79
2023/04/04 01:04:12;;;;;;;6.38;3.28;;;;;;;0.03;91.82;102970.06;4957243;28;20071;-79
2023/04/04 01:06:38;;;;;;;6.53;3.55;;;;;;;-0.07;91.80;102949.84;4957789;28;20023;-79
2023/04/04 01:09:03;;;;;;;6.82;3.40;;;;;;;-0.09;92.21;102948.91;4958251;28;20039;-79
2023/04/04 01:11:28;;;;;;;6.10;3.75;;;;;;;-0.06;92.71;102964.47;4956986;28;20082;-79
2023/04/04 01:13:54;;;;;;;5.60;3.67;;;;;;;-0.08;92.44;102959.22;4958194;28;20033;-79
2023/04/04 01:16:20;;;;;;;4.90;3.10;;;;;;;-0.14;94.07;102950.31;4958194;28;20424;-79
2023/04/04 01:18:47;;;;;;;6.85;3.70;;;;;;;-0.13;94.53;102957.22;4956930;28;20513;-79
2023/04/04 01:21:16;;;;;;;5.82;3.45;;;;;;;-0.18;94.05;102959.53;4957905;28;20483;-79
2023/04/04 01:23:56;;;;;;;6.93;3.45;;;;;;;-0.24;93.83;102954.06;4957779;28;20078;-79
2023/04/04 01:26:22;;;;;;;8.32;3.88;;;;;;;-0.24;94.14;102943.81;4957392;28;20027;-79
2023/04/04 01:28:48;;;;;;;8.07;3.33;;;;;;;-0.33;94.66;102931.41;4957475;28;20049;-78
2023/04/04 01:31:17;;;;;;;10.68;4.38;;;;;;;-0.34;94.82;102934.75;4958082;28;20078;-79
2023/04/04 01:33:49;;;;;;;5.72;3.83;;;;;;;-0.33;94.45;102936.53;4957074;28;20024;-79
2023/04/04 01:36:35;;;;;;;5.82;4.03;;;;;;;-0.39;94.78;102925.94;4957711;28;20494;-79
2023/04/04 01:39:24;;;;;;;9.45;5.00;;;;;;;-0.34;95.64;102936.44;4955237;28;20042;-78
2023/04/04 01:41:50;;;;;;;7.28;4.32;;;;;;;-0.35;95.44;102937.25;4953722;28;20037;-79
2023/04/04 01:44:17;;;;;;;7.35;4.18;;;;;;;-0.40;95.71;102930.97;4957465;28;20098;-79
2023/04/04 01:46:43;;;;;;;7.32;4.50;;;;;;;-0.49;95.30;102929.69;4955996;28;20042;-79
2023/04/04 01:49:08;;;;;;;7.10;4.03;;;;;;;-0.54;95.50;102925.97;4956905;28;20038;-78
2023/04/04 01:51:34;;;;;;;7.68;4.20;;;;;;;-0.64;95.57;102915.13;4957268;28;20023;-79
2023/04/04 01:54:00;;;;;;;7.85;4.00;;;;;;;-0.64;96.02;102917.69;4956410;28;20479;-79
2023/04/04 01:56:25;;;;;;;6.70;3.90;;;;;;;-0.64;95.57;102921.13;4957244;28;20019;-79
2023/04/04 01:58:52;;;;;;;8.45;4.05;;;;;;;-0.63;96.33;102929.69;4956922;28;20110;-78
2023/04/04 02:01:18;;;;;;;6.40;4.05;;;;;;;-0.63;97.63;102924.56;4956604;28;20082;-78
2023/04/04 02:03:44;;;;;;;8.38;3.78;;;;;;;-0.67;97.49;102933.78;4956658;28;20396;-78
2023/04/04 02:06:09;;;;;;;7.80;3.83;;;;;;;-0.73;97.38;102921.50;4957007;28;20029;-78
2023/04/04 02:08:35;;;;;;;6.22;4.05;;;;;;;-0.79;96.66;102925.38;4955516;28;20041;-79
2023/04/04 02:11:00;;;;;;;9.57;3.80;;;;;;;-0.83;97.72;102929.47;4956631;28;20024;-79
2023/04/04 02:13:25;;;;;;;10.35;4.10;;;;;;;-0.90;98.57;102924.78;4956864;28;20471;-78
2023/04/04 02:15:51;;;;;;;9.57;4.55;;;;;;;-0.87;98.14;102935.22;4955593;28;20023;-79
2023/04/04 02:18:17;;;;;;;10.07;4.40;;;;;;;-0.88;98.75;102928.34;4956801;28;20035;-79
2023/04/04 02:20:42;;;;;;;8.50;4.45;;;;;;;-0.96;98.97;102921.88;4956169;28;20028;-79
2023/04/04 02:23:08;;;;;;;9.27;4.35;;;;;;;-1.03;99.27;102917.22;4956876;28;20031;-79
2023/04/04 02:25:33;;;;;;;9.80;4.05;;;;;;;-0.99;99.70;102931.94;4956804;28;20027;-79
2023/04/04 02:27:58;;;;;;;13.05;4.55;;;;;;;-1.03;100.00;102932.56;4955916;28;20027;-79
2023/04/04 02:30:23;;;;;;;13.30;4.60;;;;;;;-1.13;100.00;102926.03;4956664;28;20364;-79
2023/04/04 02:32:50;;;;;;;9.35;4.85;;;;;;;-1.07;100.00;102939.19;4956266;28;20118;-79
2023/04/04 02:35:18;;;;;;;8.70;3.80;;;;;;;-1.09;100.00;102942.47;4955870;28;20027;-79
2023/04/04 02:37:45;;;;;;;6.97;4.20;;;;;;;-1.15;100.00;102939.53;4956612;28;20098;-79
2023/04/04 02:40:11;;;;;;;9.20;4.45;;;;;;;-1.14;100.00;102949.00;4956325;28;20024;-79
2023/04/04 02:42:40;;;;;;;7.85;4.75;;;;;;;-1.15;100.00;102947.22;4954971;28;20032;-79
2023/04/04 02:45:06;;;;;;;7.15;4.47;;;;;;;-1.15;100.00;102948.09;4955362;28;20559;-79
2023/04/04 02:47:31;;;;;;;8.07;3.85;;;;;;;-1.18;100.00;102947.91;4955731;28;20075;-79
2023/04/04 02:49:57;;;;;;;9.43;4.07;;;;;;;-1.22;100.00;102944.31;4953553;28;20021;-79
2023/04/04 02:52:22;;;;;;;5.93;3.78;;;;;;;-1.22;100.00;102940.88;4956001;28;20041;-79
2023/04/04 02:54:49;;;;;;;7.88;3.85;;;;;;;-1.24;100.00;102938.22;4954326;28;20400;-79
2023/04/04 02:57:14;;;;;;;6.57;3.63;;;;;;;-1.30;100.00;102932.75;4954562;28;20440;-79
2023/04/04 02:59:40;;;;;;;12.18;4.25;;;;;;;-1.32;100.00;102928.31;4955422;28;20109;-79
2023/04/04 03:02:05;;;;;;;5.90;3.90;;;;;;;-1.33;100.00;102937.69;4955464;28;20110;-79
2023/04/04 03:04:31;;;;;;;6.60;4.07;;;;;;;-1.33;100.00;102932.56;4954540;28;20131;-79
2023/04/04 03:06:56;;;;;;;7.90;4.18;;;;;;;-1.35;100.00;102928.16;4954902;28;20059;-79
2023/04/04 03:09:22;;;;;;;7.15;3.95;;;;;;;-1.36;100.00;102931.50;4954824;28;20494;-79
2023/04/04 03:11:48;;;;;;;12.02;4.32;;;;;;;-1.38;100.00;102936.53;4954604;28;20475;-79
2023/04/04 03:14:14;;;;;;;6.55;3.90;;;;;;;-1.43;100.00;102935.38;4954547;28;20035;-79
2023/04/04 03:16:39;;;;;;;6.53;3.83;;;;;;;-1.44;100.00;102929.38;4954521;28;20029;-79
2023/04/04 03:19:05;;;;;;;12.95;4.45;;;;;;;-1.46;100.00;102927.53;4954111;28;20023;-79
2023/04/04 03:21:30;;;;;;;7.75;4.30;;;;;;;-1.48;100.00;102937.66;4955361;28;20467;-79
2023/04/04 03:23:55;;;;;;;6.43;3.83;;;;;;;-1.45;100.00;102937.84;4953496;28;20053;-79
2023/04/04 03:26:21;;;;;;;6.65;3.97;;;;;;;-1.47;100.00;102938.56;4954685;28;20035;-80
2023/04/04 03:28:46;;;;;;;11.18;4.18;;;;;;;-1.46;100.00;102940.31;4954045;28;20042;-79
2023/04/04 03:31:11;;;;;;;7.55;4.28;;;;;;;-1.47;100.00;102944.56;4954273;28;20042;-79
2023/04/04 03:33:37;;;;;;;7.85;4.50;;;;;;;-1.52;100.00;102938.28;4955061;28;20079;-79
2023/04/04 03:36:09;;;;;;;13.20;4.32;;;;;;;-1.58;100.00;102929.34;4954922;28;20054;-79
2023/04/04 03:38:35;;;;;;;9.50;4.10;;;;;;;-1.64;100.00;102932.41;4953311;28;20073;-79
2023/04/04 03:41:02;;;;;;;8.95;4.20;;;;;;;-1.66;100.00;102936.56;4953104;28;20531;-79
2023/04/04 03:43:28;;;;;;;7.78;3.70;;;;;;;-1.74;100.00;102923.31;4954649;28;20031;-79
2023/04/04 03:45:54;;;;;;;8.80;4.40;;;;;;;-1.85;100.00;102911.56;4952526;28;20161;-79
2023/04/04 03:48:19;;;;;;;9.77;4.35;;;;;;;-1.76;100.00;102919.78;4954379;28;20035;-79
2023/04/04 03:50:44;;;;;;;8.57;3.97;;;;;;;-1.84;100.00;102900.53;4954117;28;20024;-80
2023/04/04 03:53:11;;;;;;;9.77;3.92;;;;;;;-1.84;100.00;102905.66;4954711;28;20150;-80
2023/04/04 03:55:40;;;;;;;7.30;4.43;;;;;;;-1.81;100.00;102915.19;4955037;28;20023;-80
2023/04/04 03:58:05;;;;;;;10.43;3.90;;;;;;;-1.83;100.00;102916.75;4954821;28;20031;-79
2023/04/04 04:00:31;;;;;;;6.05;4.18;;;;;;;-1.84;100.00;102912.44;4954259;28;20723;-79
2023/04/04 04:02:56;;;;;;;6.93;4.43;;;;;;;-1.83;100.00;102909.09;4954965;28;20039;-80
2023/04/04 04:05:21;;;;;;;9.38;4.97;;;;;;;-1.89;100.00;102904.50;4955068;28;20379;-80
2023/04/04 04:07:47;;;;;;;8.30;5.10;;;;;;;-1.85;100.00;102913.25;4954254;28;20031;-80
2023/04/04 04:10:15;;;;;;;10.15;5.18;;;;;;;-1.95;100.00;102902.47;4954993;28;20395;-80
2023/04/04 04:12:41;;;;;;;8.05;4.07;;;;;;;-1.88;100.00;102924.16;4941526;28;20110;-80
2023/04/04 04:15:07;;;;;;;8.85;4.18;;;;;;;-1.96;100.00;102910.06;4954234;28;20028;-80
2023/04/04 04:17:33;;;;;;;8.75;4.45;;;;;;;-1.99;100.00;102912.41;4954530;28;20134;-79
2023/04/04 04:19:58;;;;;;;8.57;4.60;;;;;;;-1.98;100.00;102924.41;4955162;28;20054;-79
2023/04/04 04:22:23;;;;;;;9.63;4.50;;;;;;;-2.06;100.00;102920.47;4956204;28;20480;-79
2023/04/04 04:24:49;;;;;;;10.23;4.38;;;;;;;-2.04;100.00;102926.56;4966276;28;20020;-79
2023/04/04 04:27:14;;;;;;;7.10;4.35;;;;;;;-2.05;100.00;102923.16;4953781;28;20446;-79
2023/04/04 04:29:40;;;;;;;7.25;4.03;;;;;;;-2.06;100.00;102918.84;4954522;28;20033;-79
2023/04/04 04:32:05;;;;;;;7.00;4.20;;;;;;;-2.09;100.00;102917.72;4954103;28;20024;-80
2023/04/04 04:34:30;;;;;;;11.45;5.22;;;;;;;-2.27;100.00;102881.72;4953784;28;20034;-80
2023/04/04 04:36:58;;;;;;;11.18;4.93;;;;;;;-2.16;100.00;102902.06;4954636;28;20026;-79
2023/04/04 04:39:24;;;;;;;8.70;4.75;;;;;;;-2.16;100.00;102912.28;4954733;28;20046;-79
2023/04/04 04:41:49;;;;;;;8.38;4.75;;;;;;;-2.22;100.00;102900.78;4953731;28;20023;-79
2023/04/04 04:44:14;;;;;;;11.32;5.22;;;;;;;-2.18;100.00;102913.84;4954492;28;20484;-79
2023/04/04 04:46:39;;;;;;;7.40;4.28;;;;;;;-2.15;100.00;102913.16;4954239;28;20019;-79
2023/04/04 04:49:05;;;;;;;8.98;4.85;;;;;;;-2.16;100.00;102909.72;4953732;28;20114;-79
2023/04/04 04:51:30;;;;;;;10.77;5.38;;;;;;;-2.20;100.00;102912.84;4953026;28;20035;-79
2023/04/04 04:53:55;;;;;;;10.40;4.78;;;;;;;-2.23;100.00;102928.00;4953644;28;20023;-80
2023/04/04 04:56:21;;;;;;;10.45;5.22;;;;;;;-2.20;100.00;102924.75;4953564;28;20038;-78
2023/04/04 04:58:47;;;;;;;7.35;4.35;;;;;;;-2.20;100.00;102929.84;4953128;28;20601;-79
2023/04/04 05:01:15;;;;;;;12.95;5.10;;;;;;;-2.23;100.00;102934.78;4953979;28;20039;-79
2023/04/04 05:03:41;;;;;;;8.57;4.80;;;;;;;-2.28;100.00;102929.41;4951898;28;20062;-79
2023/04/04 05:06:06;;;;;;;9.90;4.85;;;;;;;-2.26;100.00;102940.56;4954301;28;20091;-79
2023/04/04 05:08:31;;;;;;;13.60;5.45;;;;;;;-2.39;100.00;102922.72;4967728;28;20050;-79
2023/04/04 05:10:57;;;;;;;7.70;4.32;;;;;;;-2.29;100.00;102950.63;4952971;28;20027;-80
2023/04/04 05:13:22;;;;;;;12.48;5.05;;;;;;;-2.28;100.00;102947.28;4951881;28;20467;-79
2023/04/04 05:15:47;;;;;;;9.77;4.78;;;;;;;-2.26;100.00;102955.03;4957178;28;20023;-79
2023/04/04 05:18:13;;;;;;;9.45;5.13;;;;;;;-2.32;100.00;102950.44;4962726;28;20036;-79
2023/04/04 05:20:38;;;;;;;9.93;5.53;;;;;;;-2.34;100.00;102941.78;4953937;28;20012;-79
2023/04/04 05:23:07;;;;;;;9.63;5.35;;;;;;;-2.36;100.00;102944.22;4954231;28;20027;-79
2023/04/04 05:25:32;;;;;;;9.27;5.53;;;;;;;-2.37;100.00;102937.34;4953252;28;20055;-79
2023/04/04 05:27:58;;;;;;;10.45;5.72;;;;;;;-2.37;100.00;102936.47;4954246;28;20027;-79
2023/04/04 05:30:23;;;;;;;10.32;5.13;;;;;;;-2.31;100.00;102947.09;4954368;28;20077;-79
2023/04/04 05:32:50;;;;;;;9.70;5.50;;;;;;;-2.31;100.00;102941.09;4957188;28;20023;-79
2023/04/04 05:35:15;;;;;;;10.25;5.53;;;;;;;-2.33;100.00;102932.44;4963646;28;20038;-79
2023/04/04 05:37:41;;;;;;;10.13;5.72;;;;;;;-2.21;100.00;102948.53;4952965;28;20027;-79
2023/04/04 05:40:07;;;;;;;14.57;6.55;;;;;;;-2.16;100.00;102952.25;4953720;28;20120;-79
2023/04/04 05:42:32;;;;;;;11.95;5.53;;;;;;;-2.16;100.00;102939.47;4953502;28;20158;-79
2023/04/04 05:44:57;;;;;;;11.85;5.65;;;;;;;-2.08;100.00;102952.75;4962358;28;20034;-79
2023/04/04 05:47:23;;;;;;;12.13;6.13;;;;;;;-2.03;100.00;102953.91;4969488;28;20039;-79
2023/04/04 05:49:51;;;;;;;9.20;5.13;;;;;;;-2.01;100.00;102954.88;4957304;28;20035;-79
2023/04/04 05:52:16;;;;;;;9.25;5.88;;;;;;;-1.95;100.00;102960.38;4956678;28;20091;-79
2023/04/04 05:54:41;;;;;;;11.02;6.15;;;;;;;-1.90;100.00;102958.97;4957397;28;20471;-79
2023/04/04 05:57:07;;;;;;;9.68;6.03;;;;;;;-1.89;100.00;102958.19;4957637;28;20026;-79
2023/04/04 05:59:32;;;;;;;10.85;6.28;;;;;;;-1.86;100.00;102949.81;4956291;28;20035;-79
2023/04/04 06:01:57;;;;;;;13.32;5.95;;;;;;;-1.76;100.00;102959.84;4959390;28;20023;-79
2023/04/04 06:04:26;;;;;;;12.70;7.15;;;;;;;-1.67;100.00;102958.72;4986026;28;20481;-79
2023/04/04 06:06:51;;;;;;;15.38;7.60;;;;;;;-1.63;100.00;102953.78;4975457;28;20038;-79
2023/04/04 06:09:16;;;;;;;18.02;9.05;;;;;;;-1.66;100.00;102931.47;4976524;28;20061;-79
2023/04/04 06:11:42;;;;;;;15.52;8.90;;;;;;;-1.45;100.00;102952.31;4976182;28;20058;-79
2023/04/04 06:14:09;;;;;;;15.98;8.10;;;;;;;-1.39;100.00;102952.69;4979182;28;20034;-79
2023/04/04 06:16:35;;;;;;;13.27;8.50;;;;;;;-1.29;100.00;102947.31;4985349;28;20482;-79
2023/04/04 06:19:01;;;;;;;13.02;8.48;;;;;;;-1.20;100.00;102960.63;4977864;28;20059;-79
2023/04/04 06:21:26;;;;;;;16.75;8.57;;;;;;;-1.10;100.00;102961.19;4988745;28;20026;-79
2023/04/04 06:23:51;;;;;;;14.38;8.70;;;;;;;-1.09;100.00;102945.91;4977746;28;20081;-79
2023/04/04 06:26:17;;;;;;;11.88;8.43;;;;;;;-1.02;100.00;102947.13;4974185;28;20394;-79
2023/04/04 06:28:49;;;;;;;12.48;7.65;;;;;;;-0.92;100.00;102961.34;4974602;28;20026;-79
2023/04/04 06:31:14;;;;;;;14.30;7.53;;;;;;;-0.79;100.00;102964.69;4972439;28;20107;-79
2023/04/04 06:33:40;;;;;;;20.38;10.13;;;;;;;-0.68;100.00;102973.00;4974129;28;20022;-79
2023/04/04 06:36:08;;;;;;;19.00;9.75;;;;;;;-0.60;100.00;102975.97;4973365;28;20027;-79
2023/04/04 06:38:34;;;;;;;11.15;8.30;;;;;;;-0.51;100.00;102971.38;4975578;28;20066;-79
2023/04/04 06:40:59;;;;;;;11.98;8.00;;;;;;;-0.45;100.00;102966.59;4976285;28;20032;-79
2023/04/04 06:43:24;;;;;;;14.90;7.93;;;;;;;-0.36;100.00;102967.13;4979644;28;20055;-79
2023/04/04 06:45:50;;;;;;;14.93;7.65;;;;;;;-0.25;100.00;102973.69;4975457;28;20054;-78
2023/04/04 06:48:15;;;;;;;13.68;7.65;;;;;;;-0.17;100.00;102965.53;4963582;28;20031;-77
2023/04/04 06:50:41;;;;;;;13.98;8.48;;;;;;;-0.11;100.00;102973.56;4975202;28;20520;-78
2023/04/04 06:53:06;;;;;;;13.85;7.38;;;;;;;-0.04;100.00;102960.28;4975746;28;20034;-78
2023/04/04 06:55:34;;;;;;;11.40;7.22;;;;;;;0.07;100.00;102969.44;4970525;28;20094;-78
2023/04/04 06:58:00;;;;;;;10.05;6.35;;;;;;;0.09;100.00;102964.38;4980191;28;20030;-78
2023/04/04 07:00:26;;;;;;;12.35;7.15;;;;;;;0.18;100.00;102972.56;4974093;28;20034;-78
2023/04/04 07:02:58;;;;;;;12.25;7.13;;;;;;;0.32;99.54;102978.41;4973142;28;20391;-78
2023/04/04 07:05:24;;;;;;;16.60;7.78;;;;;;;0.40;99.38;102970.34;4974087;28;20397;-78
2023/04/04 07:07:55;;;;;;;10.25;6.68;;;;;;;0.47;97.64;102974.09;4971162;28;20035;-77
2023/04/04 07:10:22;;;;;;;11.70;6.93;;;;;;;0.53;97.09;102964.16;4974385;28;20064;-78
2023/04/04 07:12:47;;;;;;;10.13;6.43;;;;;;;0.66;97.10;102968.25;4973828;28;20444;-78
2023/04/04 07:15:12;;;;;;;12.27;6.45;;;;;;;0.68;95.50;102967.47;4987897;28;20034;-78
2023/04/04 07:17:39;;;;;;;9.57;6.57;;;;;;;0.84;95.18;102979.41;4973383;28;20085;-78
2023/04/04 07:20:06;;;;;;;15.60;6.68;;;;;;;0.93;93.42;102972.19;4968007;28;20027;-77
2023/04/04 07:22:31;;;;;;;13.15;6.35;;;;;;;1.01;93.03;102975.13;4973016;28;20110;-78
2023/04/04 07:24:56;;;;;;;10.50;6.55;;;;;;;1.13;92.12;102967.16;4974148;28;20475;-78
2023/04/04 07:27:22;;;;;;;10.65;6.07;;;;;;;1.17;90.83;102954.53;4972742;28;20030;-77
2023/04/04 07:29:47;;;;;;;11.30;5.72;;;;;;;1.37;89.47;102960.66;4973219;28;20578;-78
2023/04/04 07:32:14;;;;;;;9.27;5.90;;;;;;;1.50;88.85;102964.66;4972791;28;20085;-77
2023/04/04 07:34:40;;;;;;;9.63;5.60;;;;;;;1.62;88.93;102962.69;4972226;28;20039;-77
2023/04/04 07:37:06;;;;;;;14.30;6.45;;;;;;;1.73;86.60;102957.16;4971366;28;20031;-77
2023/04/04 07:39:31;;;;;;;8.00;5.03;;;;;;;1.81;84.70;102948.13;4973664;28;20022;-77
2023/04/04 07:41:56;;;;;;;11.55;5.18;;;;;;;1.87;82.91;102944.13;4974746;28;20042;-77
2023/04/04 07:44:22;;;;;;;11.07;5.22;;;;;;;2.04;83.49;102950.03;4973716;28;20742;-77
2023/04/04 07:46:47;;;;;;;11.52;5.22;;;;;;;2.16;80.46;102953.97;4974276;28;20034;-78
2023/04/04 07:49:12;;;;;;;9.63;5.90;;;;;;;2.22;80.81;102941.38;4974403;28;20042;-77
2023/04/04 07:51:38;;;;;;;8.27;5.55;;;;;;;2.31;80.25;102942.66;4973150;28;20030;-78
2023/04/04 07:54:04;;;;;;;6.60;4.20;;;;;;;2.51;79.82;102956.41;4974675;28;20023;-77
2023/04/04 07:56:29;;;;;;;6.85;4.30;;;;;;;2.61;78.88;102947.38;4969834;28;20038;-78
2023/04/04 07:58:55;;;;;;;8.27;4.53;;;;;;;2.68;75.15;102941.69;4973554;28;20030;-78
2023/04/04 08:01:20;;;;;;;5.93;4.30;;;;;;;2.72;73.31;102942.72;4974367;28;20557;-77
2023/04/04 08:03:46;;;;;;;6.72;3.72;;;;;;;2.80;73.38;102941.31;4963454;28;20462;-77
2023/04/04 08:06:12;;;;;;;7.70;4.00;;;;;;;2.81;70.29;102943.97;4954096;28;20111;-77
2023/04/04 08:08:37;;;;;;;6.60;3.75;;;;;;;2.84;71.95;102956.09;4954602;28;20403;-77
2023/04/04 08:11:02;;;;;;;6.93;3.80;;;;;;;2.84;73.44;102938.06;4955140;28;20026;-77
2023/04/04 08:13:28;;;;;;;6.82;4.10;;;;;;;2.97;69.19;102952.31;4953763;28;20027;-77
2023/04/04 08:15:53;;;;;;;4.03;3.28;;;;;;;3.00;68.95;102945.59;4954961;28;20023;-77
2023/04/04 08:18:19;;;;;;;5.57;3.22;;;;;;;3.08;68.06;102947.63;4954727;28;20035;-78
2023/04/04 08:20:48;;;;;;;6.65;3.40;;;;;;;3.18;68.75;102949.78;4953430;28;20027;-77
2023/04/04 08:23:14;;;;;;;9.80;4.15;;;;;;;3.33;69.92;102955.53;4954935;28;20027;-77
2023/04/04 08:25:39;;;;;;;8.77;3.42;;;;;;;3.32;68.63;102943.47;4954312;28;20472;-77
2023/04/04 08:28:04;;;;;;;9.60;3.95;;;;;;;3.40;67.66;102952.41;4954077;28;20027;-77
2023/04/04 08:30:30;;;;;;;6.55;3.15;;;;;;;3.43;64.10;102951.59;4954453;28;20110;-77
2023/04/04 08:32:56;;;;;;;6.30;2.92;;;;;;;3.47;63.61;102954.38;4954433;28;20106;-77
2023/04/04 08:35:21;;;;;;;6.88;2.75;;;;;;;3.58;65.33;102954.81;4953791;28;20050;-78
2023/04/04 08:37:47;;;;;;;8.38;3.50;;;;;;;3.68;62.75;102951.75;4954062;28;20058;-78
2023/04/04 08:40:12;;;;;;;4.13;3.10;;;;;;;3.68;61.37;102922.50;4954821;28;20035;-77
2023/04/04 08:42:42;;;;;;;8.55;3.55;;;;;;;3.91;63.08;102946.59;4953452;28;20035;-77
2023/04/04 08:45:08;;;;;;;5.50;3.28;;;;;;;4.03;61.19;102943.59;4952500;28;20154;-77
2023/04/04 08:47:38;;;;;;;6.03;3.20;;;;;;;4.06;59.40;102934.28;4950997;28;20027;-77
2023/04/04 08:50:05;;;;;;;8.02;2.72;;;;;;;4.12;60.11;102926.75;4951886;28;20101;-77
2023/04/04 08:52:32;;;;;;;8.50;2.70;;;;;;;4.29;59.94;102937.69;4952188;28;20059;-77
2023/04/04 08:54:58;;;;;;;6.65;3.00;;;;;;;4.34;58.14;102933.53;4949669;28;20020;-77
2023/04/04 08:57:23;;;;;;;5.43;2.78;;;;;;;4.42;58.21;102934.72;4954453;28;20046;-78
2023/04/04 08:59:48;;;;;;;8.82;2.70;;;;;;;4.49;55.20;102937.50;4953262;28;20024;-78
2023/04/04 09:02:22;;;;;;;5.40;2.83;;;;;;;4.58;57.27;102930.09;4950072;28;20529;-78
2023/04/04 09:04:48;;;;;;;7.75;3.03;;;;;;;4.63;58.07;102924.22;4964061;28;20173;-78
2023/04/04 09:07:14;;;;;;;4.13;2.72;;;;;;;4.78;57.38;102936.81;4973640;28;20046;-78
2023/04/04 09:09:44;;;;;;;5.55;2.70;;;;;;;4.86;55.67;102930.19;4973965;28;20035;-77
2023/04/04 09:12:12;;;;;;;7.18;2.92;;;;;;;5.00;54.35;102927.16;4970480;28;20023;-77
2023/04/04 09:14:38;;;;;;;10.75;3.55;;;;;;;5.03;54.68;102922.09;4969322;28;20119;-78
2023/04/04 09:17:04;;;;;;;7.95;3.85;;;;;;;5.06;54.12;102930.81;4969840;28;20045;-77
2023/04/04 09:19:29;;;;;;;6.32;2.90;;;;;;;5.12;55.27;102922.41;4966322;28;20042;-78
2023/04/04 09:21:54;;;;;;;6.18;3.00;;;;;;;5.22;54.83;102921.88;4974368;28;20110;-78
2023/04/04 09:24:20;;;;;;;6.38;2.88;;;;;;;5.32;55.57;102935.97;4973477;28;20031;-78
2023/04/04 09:26:52;;;;;;;5.47;2.58;;;;;;;5.36;52.72;102930.97;4976768;28;20038;-78
2023/04/04 09:29:19;;;;;;;6.32;3.03;;;;;;;5.48;53.85;102937.31;4974516;28;20031;-78
2023/04/04 09:31:45;;;;;;;10.27;3.40;;;;;;;5.49;53.25;102916.66;4976308;28;20415;-78
2023/04/04 09:34:13;;;;;;;6.72;2.70;;;;;;;5.67;51.96;102931.00;4975120;28;20019;-78
2023/04/04 09:36:39;;;;;;;4.22;2.15;;;;;;;5.73;52.37;102931.19;4975449;28;20085;-78
2023/04/04 09:39:05;;;;;;;5.95;2.60;;;;;;;5.73;52.45;102916.53;4975947;28;20444;-78
2023/04/04 09:41:31;;;;;;;5.18;2.33;;;;;;;5.89;52.13;102924.78;4976329;28;20038;-78
2023/04/04 09:43:56;;;;;;;4.78;2.40;;;;;;;5.99;51.45;102921.66;4974480;28;20861;-78
2023/04/04 09:46:22;;;;;;;6.68;2.35;;;;;;;6.03;50.89;102910.53;4975340;28;20125;-78
2023/04/04 09:48:52;;;;;;;6.85;2.97;;;;;;;6.19;52.06;102925.66;4976311;28;20114;-78
2023/04/04 09:51:20;;;;;;;5.30;2.67;;;;;;;6.22;51.15;102915.38;4974423;28;20837;-78
2023/04/04 09:53:50;;;;;;;7.35;3.17;;;;;;;6.23;49.64;102917.13;4975278;28;20425;-78
2023/04/04 09:56:16;;;;;;;6.38;2.63;;;;;;;6.29;50.55;102906.06;4974708;28;20037;-78
2023/04/04 09:58:48;;;;;;;3.47;2.25;;;;;;;6.42;50.31;102907.28;4974601;28;20113;-78
2023/04/04 10:01:14;;;;;;;5.40;2.70;;;;;;;6.59;50.43;102900.81;4975584;28;20023;-78
2023/04/04 10:03:39;;;;;;;6.05;2.80;;;;;;;6.63;49.94;102897.47;4966471;28;20102;-78
2023/04/04 10:06:06;;;;;;;5.93;2.58;;;;;;;6.70;48.37;102898.50;4955154;28;20031;-78
2023/04/04 10:08:33;;;;;;;7.10;2.75;;;;;;;6.72;49.34;102905.47;4956558;28;20027;-79
2023/04/04 10:11:00;;;;;;;6.15;2.67;;;;;;;6.79;47.25;102903.91;4957075;28;20367;-78
2023/04/04 10:13:27;;;;;;;7.20;2.75;;;;;;;6.79;47.48;102894.41;4955585;28;20265;-79
2023/04/04 10:15:57;;;;;;;6.45;2.65;;;;;;;6.78;47.72;102887.50;4955879;28;20050;-78
2023/04/04 10:18:26;;;;;;;5.47;2.92;;;;;;;6.78;46.08;102891.81;4954165;28;20082;-78
2023/04/04 10:20:56;;;;;;;8.85;3.05;;;;;;;6.86;46.80;102891.97;4954424;28;20069;-78
2023/04/04 10:23:25;;;;;;;5.30;2.80;;;;;;;7.05;48.00;102896.78;4955284;28;20027;-79
2023/04/04 10:25:51;;;;;;;6.75;2.50;;;;;;;7.16;48.58;102877.16;4955676;28;20514;-78
2023/04/04 10:28:17;;;;;;;4.63;2.88;;;;;;;7.41;47.54;102899.34;4955221;28;20027;-78
2023/04/04 10:30:51;;;;;;;7.30;3.25;;;;;;;7.60;49.42;102895.44;4955474;28;20026;-78
2023/04/04 10:33:26;;;;;;;6.18;2.60;;;;;;;7.62;46.92;102890.25;4955049;28;20545;-79
2023/04/04 10:35:56;;;;;;;7.28;3.00;;;;;;;7.72;46.65;102882.72;4955159;28;20027;-78
2023/04/04 10:38:27;;;;;;;7.15;3.05;;;;;;;7.83;48.15;102889.84;4956440;28;20380;-78
2023/04/04 10:40:55;;;;;;;10.38;2.85;;;;;;;7.98;48.36;102890.19;4954956;28;20027;-78
2023/04/04 10:43:25;;;;;;;5.57;2.72;;;;;;;8.03;46.66;102874.66;4955361;28;20387;-78
2023/04/04 10:45:54;;;;;;;9.38;3.58;;;;;;;7.95;45.78;102869.34;4956177;28;20023;-78
2023/04/04 10:48:21;;;;;;;8.73;3.05;;;;;;;8.10;45.65;102879.13;4955455;28;20114;-79
2023/04/04 10:50:47;;;;;;;4.40;3.00;;;;;;;8.20;44.57;102874.13;4954106;28;20081;-78
2023/04/04 10:53:16;;;;;;;6.55;3.40;;;;;;;8.29;45.68;102864.78;4955832;28;20423;-78
2023/04/04 10:55:44;;;;;;;7.25;2.92;;;;;;;8.34;43.20;102864.03;4955494;28;20131;-78
2023/04/04 10:58:10;;;;;;;8.02;2.60;;;;;;;8.31;43.76;102865.69;4956321;28;20486;-78
2023/04/04 11:00:50;;;;;;;6.45;2.97;;;;;;;8.43;46.04;102853.78;4955829;28;20357;-79
2023/04/04 11:03:15;;;;;;;6.07;2.60;;;;;;;8.56;41.82;102862.69;4960346;28;20047;-79
2023/04/04 11:05:47;;;;;;;3.97;2.50;;;;;;;8.67;43.99;102849.88;4974550;28;20030;-77
2023/04/04 11:08:19;;;;;;;6.13;2.70;;;;;;;8.55;44.10;102837.53;4972987;28;20031;-76
2023/04/04 11:10:49;;;;;;;9.15;3.05;;;;;;;8.72;43.29;102865.56;4973577;28;20104;-77
2023/04/04 11:13:15;;;;;;;6.00;3.20;;;;;;;8.77;44.12;102856.13;4973907;28;20030;-79
2023/04/04 11:15:46;;;;;;;6.25;2.63;;;;;;;8.77;43.16;102843.09;4971637;28;20043;-78
2023/04/04 11:18:12;;;;;;;6.72;2.80;;;;;;;8.60;42.39;102845.41;4972848;28;20023;-79
2023/04/04 11:20:44;;;;;;;4.55;2.88;;;;;;;8.59;42.18;102844.53;4971753;28;20027;-79